sensor_id;sensor_type;location;lat;lon;timestamp;P1;durP1;ratioP1;P2;durP2;ratioP2
76795;SDS011;65745;50.278;18.192;2024-03-17T00:01:58;13.90;;;8.10;;
76795;SDS011;65745;50.278;18.192;2024-03-17T00:04:30;15.60;;;8.20;;
76795;SDS011;65745;50.278;18.192;2024-03-17T00:07:02;11.20;;;5.80;;
76795;SDS011;65745;50.278;18.192;2024-03-17T00:09:34;12.00;;;6.60;;
76795;SDS011;65745;50.278;18.192;2024-03-17T00:12:07;15.80;;;8.40;;
76795;SDS011;65745;50.278;18.192;2024-03-17T00:14:40;13.20;;;7.60;;
76795;SDS011;65745;50.278;18.192;2024-03-17T00:17:12;12.30;;;6.30;;
76795;SDS011;65745;50.278;18.192;2024-03-17T00:19:44;11.10;;;6.20;;
76795;SDS011;65745;50.278;18.192;2024-03-17T00:22:16;13.80;;;9.00;;
76795;SDS011;65745;50.278;18.192;2024-03-17T00:24:47;12.60;;;7.20;;
76795;SDS011;65745;50.278;18.192;2024-03-17T00:27:20;10.80;;;6.40;;
76795;SDS011;65745;50.278;18.192;2024-03-17T00:29:51;15.90;;;9.10;;
76795;SDS011;65745;50.278;18.192;2024-03-17T00:32:23;18.70;;;8.80;;
76795;SDS011;65745;50.278;18.192;2024-03-17T00:34:55;10.80;;;6.20;;
76795;SDS011;65745;50.278;18.192;2024-03-17T00:37:27;7.60;;;4.20;;
76795;SDS011;65745;50.278;18.192;2024-03-17T00:39:58;8.70;;;4.90;;
76795;SDS011;65745;50.278;18.192;2024-03-17T00:42:31;8.40;;;4.90;;
76795;SDS011;65745;50.278;18.192;2024-03-17T00:45:03;7.40;;;3.90;;
76795;SDS011;65745;50.278;18.192;2024-03-17T00:47:36;12.30;;;6.90;;
76795;SDS011;65745;50.278;18.192;2024-03-17T00:50:08;13.80;;;7.50;;
76795;SDS011;65745;50.278;18.192;2024-03-17T00:52:41;9.10;;;4.20;;
76795;SDS011;65745;50.278;18.192;2024-03-17T00:55:13;11.70;;;7.00;;
76795;SDS011;65745;50.278;18.192;2024-03-17T00:57:45;9.70;;;5.50;;
76795;SDS011;65745;50.278;18.192;2024-03-17T01:00:17;8.20;;;4.30;;
76795;SDS011;65745;50.278;18.192;2024-03-17T01:02:49;7.30;;;4.30;;
76795;SDS011;65745;50.278;18.192;2024-03-17T01:05:21;9.70;;;4.00;;
76795;SDS011;65745;50.278;18.192;2024-03-17T01:07:52;6.70;;;3.40;;
76795;SDS011;65745;50.278;18.192;2024-03-17T01:10:24;4.80;;;2.90;;
76795;SDS011;65745;50.278;18.192;2024-03-17T01:12:56;5.80;;;2.60;;
76795;SDS011;65745;50.278;18.192;2024-03-17T01:15:28;5.80;;;3.00;;
76795;SDS011;65745;50.278;18.192;2024-03-17T01:17:59;4.40;;;2.60;;
76795;SDS011;65745;50.278;18.192;2024-03-17T01:20:31;7.90;;;4.40;;
76795;SDS011;65745;50.278;18.192;2024-03-17T01:23:05;7.90;;;4.30;;
76795;SDS011;65745;50.278;18.192;2024-03-17T01:25:36;8.70;;;5.00;;
76795;SDS011;65745;50.278;18.192;2024-03-17T01:28:08;6.50;;;3.90;;
76795;SDS011;65745;50.278;18.192;2024-03-17T01:30:40;7.90;;;4.50;;
76795;SDS011;65745;50.278;18.192;2024-03-17T01:33:12;6.00;;;4.30;;
76795;SDS011;65745;50.278;18.192;2024-03-17T01:35:44;6.70;;;3.40;;
76795;SDS011;65745;50.278;18.192;2024-03-17T01:38:16;8.30;;;4.70;;
76795;SDS011;65745;50.278;18.192;2024-03-17T01:40:48;6.70;;;4.00;;
76795;SDS011;65745;50.278;18.192;2024-03-17T01:43:19;7.60;;;3.90;;
76795;SDS011;65745;50.278;18.192;2024-03-17T01:45:51;7.50;;;4.20;;
76795;SDS011;65745;50.278;18.192;2024-03-17T01:48:23;10.60;;;6.00;;
76795;SDS011;65745;50.278;18.192;2024-03-17T01:50:56;8.90;;;3.60;;
76795;SDS011;65745;50.278;18.192;2024-03-17T01:53:28;7.90;;;4.00;;
76795;SDS011;65745;50.278;18.192;2024-03-17T01:56:01;5.10;;;3.30;;
76795;SDS011;65745;50.278;18.192;2024-03-17T01:58:34;4.80;;;2.90;;
76795;SDS011;65745;50.278;18.192;2024-03-17T02:01:06;4.30;;;3.30;;
76795;SDS011;65745;50.278;18.192;2024-03-17T02:03:38;6.00;;;3.30;;
76795;SDS011;65745;50.278;18.192;2024-03-17T02:06:10;3.80;;;2.70;;
76795;SDS011;65745;50.278;18.192;2024-03-17T02:08:49;7.80;;;2.70;;
76795;SDS011;65745;50.278;18.192;2024-03-17T02:11:25;5.80;;;3.40;;
76795;SDS011;65745;50.278;18.192;2024-03-17T02:13:57;4.80;;;2.60;;
76795;SDS011;65745;50.278;18.192;2024-03-17T02:16:30;8.70;;;4.30;;
76795;SDS011;65745;50.278;18.192;2024-03-17T02:19:02;7.20;;;4.50;;
76795;SDS011;65745;50.278;18.192;2024-03-17T02:21:34;5.30;;;2.90;;
76795;SDS011;65745;50.278;18.192;2024-03-17T02:24:07;4.00;;;2.80;;
76795;SDS011;65745;50.278;18.192;2024-03-17T02:26:39;6.00;;;2.50;;
76795;SDS011;65745;50.278;18.192;2024-03-17T02:29:11;5.20;;;2.60;;
76795;SDS011;65745;50.278;18.192;2024-03-17T02:31:42;5.80;;;3.00;;
76795;SDS011;65745;50.278;18.192;2024-03-17T02:34:15;6.20;;;3.30;;
76795;SDS011;65745;50.278;18.192;2024-03-17T02:36:46;5.70;;;3.90;;
76795;SDS011;65745;50.278;18.192;2024-03-17T02:39:18;4.50;;;3.80;;
76795;SDS011;65745;50.278;18.192;2024-03-17T02:42:04;7.00;;;3.20;;
76795;SDS011;65745;50.278;18.192;2024-03-17T02:44:37;4.40;;;2.60;;
76795;SDS011;65745;50.278;18.192;2024-03-17T02:47:09;4.10;;;2.70;;
76795;SDS011;65745;50.278;18.192;2024-03-17T02:49:45;4.50;;;3.00;;
76795;SDS011;65745;50.278;18.192;2024-03-17T02:52:19;5.70;;;3.30;;
76795;SDS011;65745;50.278;18.192;2024-03-17T02:54:51;5.80;;;3.30;;
76795;SDS011;65745;50.278;18.192;2024-03-17T02:57:28;4.10;;;2.40;;
76795;SDS011;65745;50.278;18.192;2024-03-17T03:00:01;3.70;;;2.60;;
76795;SDS011;65745;50.278;18.192;2024-03-17T03:02:34;4.50;;;2.10;;
76795;SDS011;65745;50.278;18.192;2024-03-17T03:05:06;3.40;;;2.40;;
76795;SDS011;65745;50.278;18.192;2024-03-17T03:07:37;4.60;;;2.60;;
76795;SDS011;65745;50.278;18.192;2024-03-17T03:10:09;4.50;;;2.50;;
76795;SDS011;65745;50.278;18.192;2024-03-17T03:12:41;3.70;;;2.40;;
76795;SDS011;65745;50.278;18.192;2024-03-17T03:15:12;4.10;;;2.60;;
76795;SDS011;65745;50.278;18.192;2024-03-17T03:17:44;6.20;;;2.80;;
76795;SDS011;65745;50.278;18.192;2024-03-17T03:20:16;3.60;;;2.40;;
76795;SDS011;65745;50.278;18.192;2024-03-17T03:22:47;4.50;;;2.40;;
76795;SDS011;65745;50.278;18.192;2024-03-17T03:25:19;3.80;;;2.40;;
76795;SDS011;65745;50.278;18.192;2024-03-17T03:27:50;5.00;;;2.90;;
76795;SDS011;65745;50.278;18.192;2024-03-17T03:30:25;5.10;;;2.80;;
76795;SDS011;65745;50.278;18.192;2024-03-17T03:32:56;3.40;;;2.70;;
76795;SDS011;65745;50.278;18.192;2024-03-17T03:35:29;5.40;;;2.80;;
76795;SDS011;65745;50.278;18.192;2024-03-17T03:38:01;6.10;;;2.60;;
76795;SDS011;65745;50.278;18.192;2024-03-17T03:40:32;5.30;;;2.70;;
76795;SDS011;65745;50.278;18.192;2024-03-17T03:43:04;5.00;;;2.80;;
76795;SDS011;65745;50.278;18.192;2024-03-17T03:45:36;3.40;;;2.30;;
76795;SDS011;65745;50.278;18.192;2024-03-17T03:48:08;3.50;;;2.50;;
76795;SDS011;65745;50.278;18.192;2024-03-17T03:50:41;2.80;;;2.30;;
76795;SDS011;65745;50.278;18.192;2024-03-17T03:53:12;3.00;;;2.10;;
76795;SDS011;65745;50.278;18.192;2024-03-17T03:55:44;6.20;;;3.00;;
76795;SDS011;65745;50.278;18.192;2024-03-17T03:58:17;4.10;;;2.40;;
76795;SDS011;65745;50.278;18.192;2024-03-17T04:00:49;3.30;;;2.40;;
76795;SDS011;65745;50.278;18.192;2024-03-17T04:03:21;3.00;;;2.40;;
76795;SDS011;65745;50.278;18.192;2024-03-17T04:06:00;3.20;;;2.70;;
76795;SDS011;65745;50.278;18.192;2024-03-17T04:08:34;5.30;;;3.40;;
76795;SDS011;65745;50.278;18.192;2024-03-17T04:11:08;6.00;;;3.00;;
76795;SDS011;65745;50.278;18.192;2024-03-17T04:13:41;4.50;;;2.50;;
76795;SDS011;65745;50.278;18.192;2024-03-17T04:16:13;3.00;;;2.40;;
76795;SDS011;65745;50.278;18.192;2024-03-17T04:18:44;6.00;;;3.20;;
76795;SDS011;65745;50.278;18.192;2024-03-17T04:21:16;5.60;;;3.00;;
76795;SDS011;65745;50.278;18.192;2024-03-17T04:23:48;5.00;;;2.80;;
76795;SDS011;65745;50.278;18.192;2024-03-17T04:26:20;5.70;;;3.10;;
76795;SDS011;65745;50.278;18.192;2024-03-17T04:28:52;5.20;;;2.80;;
76795;SDS011;65745;50.278;18.192;2024-03-17T04:31:24;7.10;;;3.00;;
76795;SDS011;65745;50.278;18.192;2024-03-17T04:33:56;7.70;;;3.10;;
76795;SDS011;65745;50.278;18.192;2024-03-17T04:36:28;4.90;;;2.50;;
76795;SDS011;65745;50.278;18.192;2024-03-17T04:39:00;4.50;;;3.10;;
76795;SDS011;65745;50.278;18.192;2024-03-17T04:41:37;5.30;;;3.20;;
76795;SDS011;65745;50.278;18.192;2024-03-17T04:44:09;5.20;;;3.10;;
76795;SDS011;65745;50.278;18.192;2024-03-17T04:46:41;6.70;;;3.30;;
76795;SDS011;65745;50.278;18.192;2024-03-17T04:49:13;6.00;;;3.50;;
76795;SDS011;65745;50.278;18.192;2024-03-17T04:51:45;6.10;;;3.60;;
76795;SDS011;65745;50.278;18.192;2024-03-17T04:54:16;5.40;;;3.00;;
76795;SDS011;65745;50.278;18.192;2024-03-17T04:56:48;9.10;;;3.50;;
76795;SDS011;65745;50.278;18.192;2024-03-17T04:59:19;4.30;;;3.30;;
76795;SDS011;65745;50.278;18.192;2024-03-17T05:01:52;4.80;;;3.20;;
76795;SDS011;65745;50.278;18.192;2024-03-17T05:04:24;7.80;;;3.10;;
76795;SDS011;65745;50.278;18.192;2024-03-17T05:06:55;5.30;;;2.70;;
76795;SDS011;65745;50.278;18.192;2024-03-17T05:09:27;6.50;;;3.70;;
76795;SDS011;65745;50.278;18.192;2024-03-17T05:11:59;5.30;;;3.30;;
76795;SDS011;65745;50.278;18.192;2024-03-17T05:14:31;3.90;;;3.00;;
76795;SDS011;65745;50.278;18.192;2024-03-17T05:17:02;7.40;;;3.40;;
76795;SDS011;65745;50.278;18.192;2024-03-17T05:19:34;5.70;;;3.10;;
76795;SDS011;65745;50.278;18.192;2024-03-17T05:22:06;6.50;;;3.30;;
76795;SDS011;65745;50.278;18.192;2024-03-17T05:24:38;5.00;;;3.50;;
76795;SDS011;65745;50.278;18.192;2024-03-17T05:27:09;6.40;;;3.00;;
76795;SDS011;65745;50.278;18.192;2024-03-17T05:29:41;3.50;;;3.00;;
76795;SDS011;65745;50.278;18.192;2024-03-17T05:32:12;4.80;;;2.80;;
76795;SDS011;65745;50.278;18.192;2024-03-17T05:34:44;4.60;;;2.20;;
76795;SDS011;65745;50.278;18.192;2024-03-17T05:37:16;5.90;;;2.90;;
76795;SDS011;65745;50.278;18.192;2024-03-17T05:39:48;5.20;;;2.90;;
76795;SDS011;65745;50.278;18.192;2024-03-17T05:42:19;4.70;;;2.30;;
76795;SDS011;65745;50.278;18.192;2024-03-17T05:44:51;4.20;;;2.90;;
76795;SDS011;65745;50.278;18.192;2024-03-17T05:47:23;5.00;;;3.00;;
76795;SDS011;65745;50.278;18.192;2024-03-17T05:49:55;5.00;;;2.60;;
76795;SDS011;65745;50.278;18.192;2024-03-17T05:52:26;3.40;;;2.20;;
76795;SDS011;65745;50.278;18.192;2024-03-17T05:54:58;7.40;;;3.00;;
76795;SDS011;65745;50.278;18.192;2024-03-17T05:57:29;2.90;;;2.10;;
76795;SDS011;65745;50.278;18.192;2024-03-17T06:00:01;3.80;;;2.60;;
76795;SDS011;65745;50.278;18.192;2024-03-17T06:02:39;4.60;;;2.00;;
76795;SDS011;65745;50.278;18.192;2024-03-17T06:05:11;3.10;;;1.80;;
76795;SDS011;65745;50.278;18.192;2024-03-17T06:07:43;4.80;;;1.90;;
76795;SDS011;65745;50.278;18.192;2024-03-17T06:10:16;3.30;;;2.40;;
76795;SDS011;65745;50.278;18.192;2024-03-17T06:12:47;5.70;;;2.60;;
76795;SDS011;65745;50.278;18.192;2024-03-17T06:15:19;3.60;;;2.50;;
76795;SDS011;65745;50.278;18.192;2024-03-17T06:17:52;4.30;;;2.30;;
76795;SDS011;65745;50.278;18.192;2024-03-17T06:20:24;4.90;;;2.60;;
76795;SDS011;65745;50.278;18.192;2024-03-17T06:22:57;3.90;;;2.80;;
76795;SDS011;65745;50.278;18.192;2024-03-17T06:25:28;4.30;;;2.20;;
76795;SDS011;65745;50.278;18.192;2024-03-17T06:28:00;3.60;;;2.30;;
76795;SDS011;65745;50.278;18.192;2024-03-17T06:30:32;6.50;;;3.50;;
76795;SDS011;65745;50.278;18.192;2024-03-17T06:33:05;6.90;;;2.70;;
76795;SDS011;65745;50.278;18.192;2024-03-17T06:35:37;5.40;;;2.50;;
76795;SDS011;65745;50.278;18.192;2024-03-17T06:38:09;4.80;;;2.90;;
76795;SDS011;65745;50.278;18.192;2024-03-17T06:40:41;4.20;;;2.20;;
76795;SDS011;65745;50.278;18.192;2024-03-17T06:43:17;5.70;;;2.60;;
76795;SDS011;65745;50.278;18.192;2024-03-17T06:45:56;5.10;;;2.40;;
76795;SDS011;65745;50.278;18.192;2024-03-17T06:48:29;9.70;;;4.40;;
76795;SDS011;65745;50.278;18.192;2024-03-17T06:51:01;4.10;;;2.20;;
76795;SDS011;65745;50.278;18.192;2024-03-17T06:53:34;9.60;;;5.40;;
76795;SDS011;65745;50.278;18.192;2024-03-17T06:56:06;10.20;;;3.70;;
76795;SDS011;65745;50.278;18.192;2024-03-17T06:58:38;8.40;;;4.30;;
76795;SDS011;65745;50.278;18.192;2024-03-17T07:01:10;7.70;;;4.20;;
76795;SDS011;65745;50.278;18.192;2024-03-17T07:03:42;5.30;;;2.60;;
76795;SDS011;65745;50.278;18.192;2024-03-17T07:06:13;5.40;;;2.50;;
76795;SDS011;65745;50.278;18.192;2024-03-17T07:08:45;3.90;;;2.10;;
76795;SDS011;65745;50.278;18.192;2024-03-17T07:11:17;3.50;;;1.90;;
76795;SDS011;65745;50.278;18.192;2024-03-17T07:13:52;6.10;;;2.20;;
76795;SDS011;65745;50.278;18.192;2024-03-17T07:16:24;4.10;;;1.90;;
76795;SDS011;65745;50.278;18.192;2024-03-17T07:18:55;12.20;;;5.90;;
76795;SDS011;65745;50.278;18.192;2024-03-17T07:21:28;11.00;;;5.10;;
76795;SDS011;65745;50.278;18.192;2024-03-17T07:24:00;30.20;;;12.50;;
76795;SDS011;65745;50.278;18.192;2024-03-17T07:26:33;10.60;;;4.30;;
76795;SDS011;65745;50.278;18.192;2024-03-17T07:29:04;12.50;;;7.00;;
76795;SDS011;65745;50.278;18.192;2024-03-17T07:31:37;26.20;;;11.60;;
76795;SDS011;65745;50.278;18.192;2024-03-17T07:34:09;27.70;;;11.90;;
76795;SDS011;65745;50.278;18.192;2024-03-17T07:36:40;36.40;;;15.50;;
76795;SDS011;65745;50.278;18.192;2024-03-17T07:39:12;15.90;;;7.80;;
76795;SDS011;65745;50.278;18.192;2024-03-17T07:41:45;13.30;;;6.90;;
76795;SDS011;65745;50.278;18.192;2024-03-17T07:44:17;19.60;;;10.10;;
76795;SDS011;65745;50.278;18.192;2024-03-17T07:46:48;6.00;;;3.10;;
76795;SDS011;65745;50.278;18.192;2024-03-17T07:49:20;4.40;;;2.10;;
76795;SDS011;65745;50.278;18.192;2024-03-17T07:51:52;17.50;;;9.40;;
76795;SDS011;65745;50.278;18.192;2024-03-17T07:54:24;7.60;;;3.60;;
76795;SDS011;65745;50.278;18.192;2024-03-17T07:56:56;8.70;;;4.50;;
76795;SDS011;65745;50.278;18.192;2024-03-17T07:59:28;3.40;;;1.70;;
76795;SDS011;65745;50.278;18.192;2024-03-17T08:02:00;3.50;;;1.80;;
76795;SDS011;65745;50.278;18.192;2024-03-17T08:04:32;3.70;;;1.50;;
76795;SDS011;65745;50.278;18.192;2024-03-17T08:07:03;3.50;;;1.70;;
76795;SDS011;65745;50.278;18.192;2024-03-17T08:09:35;3.40;;;1.60;;
76795;SDS011;65745;50.278;18.192;2024-03-17T08:12:07;1.50;;;1.20;;
76795;SDS011;65745;50.278;18.192;2024-03-17T08:14:39;2.90;;;1.40;;
76795;SDS011;65745;50.278;18.192;2024-03-17T08:17:12;3.30;;;1.60;;
76795;SDS011;65745;50.278;18.192;2024-03-17T08:19:43;5.00;;;1.70;;
76795;SDS011;65745;50.278;18.192;2024-03-17T08:22:16;3.70;;;1.80;;
76795;SDS011;65745;50.278;18.192;2024-03-17T08:24:47;3.40;;;2.00;;
76795;SDS011;65745;50.278;18.192;2024-03-17T08:27:19;6.20;;;2.30;;
76795;SDS011;65745;50.278;18.192;2024-03-17T08:29:51;4.00;;;1.80;;
76795;SDS011;65745;50.278;18.192;2024-03-17T08:32:23;3.90;;;2.10;;
76795;SDS011;65745;50.278;18.192;2024-03-17T08:34:55;4.60;;;2.30;;
76795;SDS011;65745;50.278;18.192;2024-03-17T08:37:27;4.60;;;1.80;;
76795;SDS011;65745;50.278;18.192;2024-03-17T08:39:58;3.40;;;1.60;;
76795;SDS011;65745;50.278;18.192;2024-03-17T08:42:31;8.00;;;2.70;;
76795;SDS011;65745;50.278;18.192;2024-03-17T08:45:03;3.50;;;1.80;;
76795;SDS011;65745;50.278;18.192;2024-03-17T08:47:35;4.00;;;1.60;;
76795;SDS011;65745;50.278;18.192;2024-03-17T08:50:08;4.00;;;2.10;;
76795;SDS011;65745;50.278;18.192;2024-03-17T08:52:41;2.70;;;1.20;;
76795;SDS011;65745;50.278;18.192;2024-03-17T08:55:13;3.10;;;1.50;;
76795;SDS011;65745;50.278;18.192;2024-03-17T08:57:45;6.20;;;3.30;;
76795;SDS011;65745;50.278;18.192;2024-03-17T09:00:17;2.80;;;1.70;;
76795;SDS011;65745;50.278;18.192;2024-03-17T09:02:49;5.10;;;2.60;;
76795;SDS011;65745;50.278;18.192;2024-03-17T09:05:20;4.30;;;2.40;;
76795;SDS011;65745;50.278;18.192;2024-03-17T09:07:52;4.60;;;2.50;;
76795;SDS011;65745;50.278;18.192;2024-03-17T09:10:24;8.00;;;3.80;;
76795;SDS011;65745;50.278;18.192;2024-03-17T09:12:56;3.60;;;2.00;;
76795;SDS011;65745;50.278;18.192;2024-03-17T09:15:28;3.30;;;1.70;;
76795;SDS011;65745;50.278;18.192;2024-03-17T09:18:00;5.60;;;1.70;;
76795;SDS011;65745;50.278;18.192;2024-03-17T09:20:32;2.80;;;1.50;;
76795;SDS011;65745;50.278;18.192;2024-03-17T09:23:04;3.50;;;1.70;;
76795;SDS011;65745;50.278;18.192;2024-03-17T09:25:36;4.50;;;1.70;;
76795;SDS011;65745;50.278;18.192;2024-03-17T09:28:08;2.70;;;1.60;;
76795;SDS011;65745;50.278;18.192;2024-03-17T09:30:40;4.10;;;2.70;;
76795;SDS011;65745;50.278;18.192;2024-03-17T09:33:18;4.80;;;2.40;;
76795;SDS011;65745;50.278;18.192;2024-03-17T09:35:54;3.20;;;2.10;;
76795;SDS011;65745;50.278;18.192;2024-03-17T09:38:27;2.60;;;1.90;;
76795;SDS011;65745;50.278;18.192;2024-03-17T09:41:00;4.00;;;2.00;;
76795;SDS011;65745;50.278;18.192;2024-03-17T09:43:33;4.10;;;1.40;;
76795;SDS011;65745;50.278;18.192;2024-03-17T09:46:05;3.30;;;1.50;;
76795;SDS011;65745;50.278;18.192;2024-03-17T09:48:37;3.20;;;1.70;;
76795;SDS011;65745;50.278;18.192;2024-03-17T09:51:09;2.40;;;1.50;;
76795;SDS011;65745;50.278;18.192;2024-03-17T09:53:50;3.50;;;2.40;;
76795;SDS011;65745;50.278;18.192;2024-03-17T09:56:22;4.20;;;1.70;;
76795;SDS011;65745;50.278;18.192;2024-03-17T09:58:54;3.60;;;1.70;;
76795;SDS011;65745;50.278;18.192;2024-03-17T10:01:26;3.20;;;1.90;;
76795;SDS011;65745;50.278;18.192;2024-03-17T10:03:58;2.80;;;1.10;;
76795;SDS011;65745;50.278;18.192;2024-03-17T10:06:33;4.10;;;1.40;;
76795;SDS011;65745;50.278;18.192;2024-03-17T10:09:17;1.80;;;1.30;;
76795;SDS011;65745;50.278;18.192;2024-03-17T10:11:51;6.70;;;2.50;;
76795;SDS011;65745;50.278;18.192;2024-03-17T10:14:23;3.50;;;1.60;;
76795;SDS011;65745;50.278;18.192;2024-03-17T10:16:55;2.60;;;1.60;;
76795;SDS011;65745;50.278;18.192;2024-03-17T10:19:27;4.50;;;2.30;;
76795;SDS011;65745;50.278;18.192;2024-03-17T10:22:04;4.20;;;2.10;;
76795;SDS011;65745;50.278;18.192;2024-03-17T10:24:42;4.40;;;2.20;;
76795;SDS011;65745;50.278;18.192;2024-03-17T10:27:14;3.40;;;2.10;;
76795;SDS011;65745;50.278;18.192;2024-03-17T10:29:46;2.30;;;1.50;;
76795;SDS011;65745;50.278;18.192;2024-03-17T10:32:18;5.00;;;2.20;;
76795;SDS011;65745;50.278;18.192;2024-03-17T10:34:53;3.00;;;1.70;;
76795;SDS011;65745;50.278;18.192;2024-03-17T10:37:25;3.40;;;1.50;;
76795;SDS011;65745;50.278;18.192;2024-03-17T10:39:58;3.80;;;1.50;;
76795;SDS011;65745;50.278;18.192;2024-03-17T10:42:33;3.10;;;1.50;;
76795;SDS011;65745;50.278;18.192;2024-03-17T10:45:08;3.50;;;1.70;;
76795;SDS011;65745;50.278;18.192;2024-03-17T10:47:42;4.20;;;2.30;;
76795;SDS011;65745;50.278;18.192;2024-03-17T10:50:19;5.30;;;2.50;;
76795;SDS011;65745;50.278;18.192;2024-03-17T10:52:52;3.30;;;2.00;;
76795;SDS011;65745;50.278;18.192;2024-03-17T10:55:34;3.20;;;1.70;;
76795;SDS011;65745;50.278;18.192;2024-03-17T10:58:17;3.30;;;1.90;;
76795;SDS011;65745;50.278;18.192;2024-03-17T11:00:59;8.70;;;3.20;;
76795;SDS011;65745;50.278;18.192;2024-03-17T11:03:33;5.80;;;2.50;;
76795;SDS011;65745;50.278;18.192;2024-03-17T11:06:05;4.30;;;2.30;;
76795;SDS011;65745;50.278;18.192;2024-03-17T11:08:38;4.90;;;3.00;;
76795;SDS011;65745;50.278;18.192;2024-03-17T11:11:11;2.90;;;1.80;;
76795;SDS011;65745;50.278;18.192;2024-03-17T11:13:43;4.90;;;2.60;;
76795;SDS011;65745;50.278;18.192;2024-03-17T11:16:26;6.60;;;3.60;;
76795;SDS011;65745;50.278;18.192;2024-03-17T11:19:00;5.60;;;3.00;;
76795;SDS011;65745;50.278;18.192;2024-03-17T11:21:44;6.50;;;3.10;;
76795;SDS011;65745;50.278;18.192;2024-03-17T11:24:20;4.90;;;2.40;;
76795;SDS011;65745;50.278;18.192;2024-03-17T11:26:54;5.70;;;3.70;;
76795;SDS011;65745;50.278;18.192;2024-03-17T11:29:28;4.10;;;2.10;;
76795;SDS011;65745;50.278;18.192;2024-03-17T11:32:01;4.50;;;2.10;;
76795;SDS011;65745;50.278;18.192;2024-03-17T11:37:45;3.80;;;2.00;;
76795;SDS011;65745;50.278;18.192;2024-03-17T11:40:26;3.20;;;1.40;;
76795;SDS011;65745;50.278;18.192;2024-03-17T11:43:01;1.80;;;1.10;;
76795;SDS011;65745;50.278;18.192;2024-03-17T11:45:35;1.90;;;1.50;;
76795;SDS011;65745;50.278;18.192;2024-03-17T11:48:08;3.10;;;1.50;;
76795;SDS011;65745;50.278;18.192;2024-03-17T11:50:45;2.80;;;1.50;;
76795;SDS011;65745;50.278;18.192;2024-03-17T11:53:17;3.60;;;2.20;;
76795;SDS011;65745;50.278;18.192;2024-03-17T11:55:49;4.10;;;1.90;;
76795;SDS011;65745;50.278;18.192;2024-03-17T11:58:22;2.50;;;1.40;;
76795;SDS011;65745;50.278;18.192;2024-03-17T12:00:53;2.50;;;1.80;;
76795;SDS011;65745;50.278;18.192;2024-03-17T12:03:25;3.30;;;1.90;;
76795;SDS011;65745;50.278;18.192;2024-03-17T12:05:57;2.30;;;1.70;;
76795;SDS011;65745;50.278;18.192;2024-03-17T12:08:30;2.40;;;1.50;;
76795;SDS011;65745;50.278;18.192;2024-03-17T12:11:03;4.70;;;1.90;;
76795;SDS011;65745;50.278;18.192;2024-03-17T12:13:44;4.20;;;1.80;;
76795;SDS011;65745;50.278;18.192;2024-03-17T12:16:15;5.10;;;1.80;;
76795;SDS011;65745;50.278;18.192;2024-03-17T12:18:47;3.00;;;1.70;;
76795;SDS011;65745;50.278;18.192;2024-03-17T12:21:19;4.30;;;2.30;;
76795;SDS011;65745;50.278;18.192;2024-03-17T12:23:52;4.00;;;2.00;;
76795;SDS011;65745;50.278;18.192;2024-03-17T12:26:24;3.30;;;1.80;;
76795;SDS011;65745;50.278;18.192;2024-03-17T12:28:56;3.20;;;1.80;;
76795;SDS011;65745;50.278;18.192;2024-03-17T12:31:27;3.10;;;1.80;;
76795;SDS011;65745;50.278;18.192;2024-03-17T12:33:59;3.20;;;2.10;;
76795;SDS011;65745;50.278;18.192;2024-03-17T12:36:31;3.10;;;1.90;;
76795;SDS011;65745;50.278;18.192;2024-03-17T12:39:11;5.70;;;2.30;;
76795;SDS011;65745;50.278;18.192;2024-03-17T12:41:52;5.50;;;3.90;;
76795;SDS011;65745;50.278;18.192;2024-03-17T12:44:37;4.80;;;2.00;;
76795;SDS011;65745;50.278;18.192;2024-03-17T12:47:14;3.40;;;2.60;;
76795;SDS011;65745;50.278;18.192;2024-03-17T12:49:47;4.70;;;2.70;;
76795;SDS011;65745;50.278;18.192;2024-03-17T12:52:20;2.80;;;1.90;;
76795;SDS011;65745;50.278;18.192;2024-03-17T12:55:00;3.40;;;2.10;;
76795;SDS011;65745;50.278;18.192;2024-03-17T12:57:51;5.30;;;1.90;;
76795;SDS011;65745;50.278;18.192;2024-03-17T13:00:59;3.80;;;2.00;;
76795;SDS011;65745;50.278;18.192;2024-03-17T13:03:32;20.70;;;7.90;;
76795;SDS011;65745;50.278;18.192;2024-03-17T13:06:05;14.60;;;5.80;;
76795;SDS011;65745;50.278;18.192;2024-03-17T13:08:39;14.50;;;5.30;;
76795;SDS011;65745;50.278;18.192;2024-03-17T13:11:11;7.60;;;3.10;;
76795;SDS011;65745;50.278;18.192;2024-03-17T13:13:43;3.00;;;2.20;;
76795;SDS011;65745;50.278;18.192;2024-03-17T13:16:15;3.20;;;2.40;;
76795;SDS011;65745;50.278;18.192;2024-03-17T13:18:47;24.50;;;11.50;;
76795;SDS011;65745;50.278;18.192;2024-03-17T13:21:19;9.30;;;4.80;;
76795;SDS011;65745;50.278;18.192;2024-03-17T13:23:51;25.50;;;13.70;;
76795;SDS011;65745;50.278;18.192;2024-03-17T13:26:23;17.70;;;11.20;;
76795;SDS011;65745;50.278;18.192;2024-03-17T13:28:55;31.30;;;19.20;;
76795;SDS011;65745;50.278;18.192;2024-03-17T13:31:26;29.20;;;17.70;;
76795;SDS011;65745;50.278;18.192;2024-03-17T13:33:58;29.00;;;17.20;;
76795;SDS011;65745;50.278;18.192;2024-03-17T13:36:30;12.00;;;9.80;;
76795;SDS011;65745;50.278;18.192;2024-03-17T13:39:01;47.20;;;35.90;;
76795;SDS011;65745;50.278;18.192;2024-03-17T13:41:39;62.70;;;50.60;;
76795;SDS011;65745;50.278;18.192;2024-03-17T13:44:10;70.20;;;54.60;;
76795;SDS011;65745;50.278;18.192;2024-03-17T13:46:42;11.40;;;9.40;;
76795;SDS011;65745;50.278;18.192;2024-03-17T13:49:17;19.30;;;15.40;;
76795;SDS011;65745;50.278;18.192;2024-03-17T13:51:49;20.10;;;13.70;;
76795;SDS011;65745;50.278;18.192;2024-03-17T13:54:21;22.50;;;12.60;;
76795;SDS011;65745;50.278;18.192;2024-03-17T13:56:53;47.50;;;24.40;;
76795;SDS011;65745;50.278;18.192;2024-03-17T13:59:27;34.80;;;19.50;;
76795;SDS011;65745;50.278;18.192;2024-03-17T14:01:58;19.50;;;12.20;;
76795;SDS011;65745;50.278;18.192;2024-03-17T14:04:31;41.10;;;17.80;;
76795;SDS011;65745;50.278;18.192;2024-03-17T14:07:03;50.90;;;22.20;;
76795;SDS011;65745;50.278;18.192;2024-03-17T14:09:35;21.70;;;10.50;;
76795;SDS011;65745;50.278;18.192;2024-03-17T14:12:07;55.70;;;25.20;;
76795;SDS011;65745;50.278;18.192;2024-03-17T14:14:39;67.10;;;29.10;;
76795;SDS011;65745;50.278;18.192;2024-03-17T14:17:12;17.50;;;9.30;;
76795;SDS011;65745;50.278;18.192;2024-03-17T14:19:44;52.80;;;26.70;;
76795;SDS011;65745;50.278;18.192;2024-03-17T14:22:16;98.30;;;46.70;;
76795;SDS011;65745;50.278;18.192;2024-03-17T14:24:47;124.50;;;54.40;;
76795;SDS011;65745;50.278;18.192;2024-03-17T14:27:19;192.30;;;82.10;;
76795;SDS011;65745;50.278;18.192;2024-03-17T14:29:51;137.60;;;60.90;;
76795;SDS011;65745;50.278;18.192;2024-03-17T14:32:23;138.70;;;56.50;;
76795;SDS011;65745;50.278;18.192;2024-03-17T14:34:54;105.30;;;46.10;;
76795;SDS011;65745;50.278;18.192;2024-03-17T14:37:26;233.80;;;81.50;;
76795;SDS011;65745;50.278;18.192;2024-03-17T14:39:58;188.30;;;70.90;;
76795;SDS011;65745;50.278;18.192;2024-03-17T14:42:30;131.90;;;62.10;;
76795;SDS011;65745;50.278;18.192;2024-03-17T14:45:02;128.90;;;62.10;;
76795;SDS011;65745;50.278;18.192;2024-03-17T14:47:34;110.80;;;49.80;;
76795;SDS011;65745;50.278;18.192;2024-03-17T14:50:07;46.00;;;23.80;;
76795;SDS011;65745;50.278;18.192;2024-03-17T14:52:40;59.70;;;34.70;;
76795;SDS011;65745;50.278;18.192;2024-03-17T14:55:13;40.20;;;24.70;;
76795;SDS011;65745;50.278;18.192;2024-03-17T14:57:44;53.90;;;30.40;;
76795;SDS011;65745;50.278;18.192;2024-03-17T15:00:17;29.60;;;16.40;;
76795;SDS011;65745;50.278;18.192;2024-03-17T15:02:52;48.00;;;28.50;;
76795;SDS011;65745;50.278;18.192;2024-03-17T15:05:24;30.80;;;17.20;;
76795;SDS011;65745;50.278;18.192;2024-03-17T15:07:56;21.20;;;12.30;;